sensor_id;sensor_type;location;lat;lon;timestamp;noise_LAeq;noise_LA_min;noise_LA_max;noise_LA01;noise_LA95
72686;Laerm;61365;52.162;4.500;2022-11-15T00:01:17;46.52;36.07;53.42;;
72686;Laerm;61365;52.162;4.500;2022-11-15T00:03:44;46.72;35.34;53.37;;
72686;Laerm;61365;52.162;4.500;2022-11-15T00:06:11;46.75;36.03;53.00;;
72686;Laerm;61365;52.162;4.500;2022-11-15T00:08:38;46.85;34.33;52.72;;
72686;Laerm;61365;52.162;4.500;2022-11-15T00:11:04;46.63;34.02;52.69;;
72686;Laerm;61365;52.162;4.500;2022-11-15T00:13:31;46.45;34.08;52.89;;
72686;Laerm;61365;52.162;4.500;2022-11-15T00:15:59;46.63;36.30;52.95;;
72686;Laerm;61365;52.162;4.500;2022-11-15T00:18:27;46.53;34.92;53.45;;
72686;Laerm;61365;52.162;4.500;2022-11-15T00:20:53;46.45;35.03;53.04;;
72686;Laerm;61365;52.162;4.500;2022-11-15T00:23:20;46.47;35.42;52.93;;
72686;Laerm;61365;52.162;4.500;2022-11-15T00:25:46;46.65;35.73;57.19;;
72686;Laerm;61365;52.162;4.500;2022-11-15T00:28:12;46.84;35.70;53.43;;
72686;Laerm;61365;52.162;4.500;2022-11-15T00:30:39;46.61;35.65;53.20;;
72686;Laerm;61365;52.162;4.500;2022-11-15T00:33:06;46.41;35.45;53.12;;
72686;Laerm;61365;52.162;4.500;2022-11-15T00:35:34;46.27;34.48;53.29;;
72686;Laerm;61365;52.162;4.500;2022-11-15T00:38:02;46.23;34.71;52.89;;
72686;Laerm;61365;52.162;4.500;2022-11-15T00:40:29;46.32;34.87;52.52;;
72686;Laerm;61365;52.162;4.500;2022-11-15T00:42:55;46.48;34.56;53.47;;
72686;Laerm;61365;52.162;4.500;2022-11-15T00:45:22;46.10;34.44;53.64;;
72686;Laerm;61365;52.162;4.500;2022-11-15T00:47:49;46.14;34.62;52.33;;
72686;Laerm;61365;52.162;4.500;2022-11-15T00:50:16;46.10;34.79;52.73;;
72686;Laerm;61365;52.162;4.500;2022-11-15T00:52:43;46.07;35.55;52.54;;
72686;Laerm;61365;52.162;4.500;2022-11-15T00:55:15;45.90;34.67;52.69;;
72686;Laerm;61365;52.162;4.500;2022-11-15T00:57:44;46.05;34.21;52.54;;
72686;Laerm;61365;52.162;4.500;2022-11-15T01:00:12;46.20;35.26;53.05;;
72686;Laerm;61365;52.162;4.500;2022-11-15T01:02:38;46.03;35.41;53.28;;
72686;Laerm;61365;52.162;4.500;2022-11-15T01:05:06;45.88;34.24;52.01;;
72686;Laerm;61365;52.162;4.500;2022-11-15T01:07:32;45.81;35.21;53.77;;
72686;Laerm;61365;52.162;4.500;2022-11-15T01:09:58;45.83;35.16;52.76;;
72686;Laerm;61365;52.162;4.500;2022-11-15T01:12:25;45.86;34.63;52.89;;
72686;Laerm;61365;52.162;4.500;2022-11-15T01:14:52;45.73;35.52;52.64;;
72686;Laerm;61365;52.162;4.500;2022-11-15T01:17:18;45.73;33.96;52.55;;
72686;Laerm;61365;52.162;4.500;2022-11-15T01:19:44;45.89;35.33;53.57;;
72686;Laerm;61365;52.162;4.500;2022-11-15T01:22:11;45.79;33.62;52.52;;
72686;Laerm;61365;52.162;4.500;2022-11-15T01:24:37;45.73;35.33;52.53;;
72686;Laerm;61365;52.162;4.500;2022-11-15T01:27:03;45.66;34.65;52.61;;
72686;Laerm;61365;52.162;4.500;2022-11-15T01:29:30;45.68;35.55;52.25;;
72686;Laerm;61365;52.162;4.500;2022-11-15T01:31:56;45.60;34.75;52.39;;
72686;Laerm;61365;52.162;4.500;2022-11-15T01:34:23;45.63;34.69;52.28;;
72686;Laerm;61365;52.162;4.500;2022-11-15T01:36:49;45.34;34.04;52.95;;
72686;Laerm;61365;52.162;4.500;2022-11-15T01:39:15;45.17;34.45;52.60;;
72686;Laerm;61365;52.162;4.500;2022-11-15T01:41:43;45.50;34.19;52.09;;
72686;Laerm;61365;52.162;4.500;2022-11-15T01:47:20;45.43;34.41;52.00;;
72686;Laerm;61365;52.162;4.500;2022-11-15T01:50:00;45.41;33.72;52.52;;
72686;Laerm;61365;52.162;4.500;2022-11-15T01:52:32;45.36;34.80;51.88;;
72686;Laerm;61365;52.162;4.500;2022-11-15T01:55:21;45.31;34.40;53.87;;
72686;Laerm;61365;52.162;4.500;2022-11-15T01:57:53;45.19;34.85;52.17;;
72686;Laerm;61365;52.162;4.500;2022-11-15T02:00:21;45.32;34.86;51.97;;
72686;Laerm;61365;52.162;4.500;2022-11-15T02:02:47;45.21;33.99;52.86;;
72686;Laerm;61365;52.162;4.500;2022-11-15T02:05:14;45.16;33.85;53.06;;
72686;Laerm;61365;52.162;4.500;2022-11-15T02:07:41;45.23;35.27;52.16;;
72686;Laerm;61365;52.162;4.500;2022-11-15T02:10:19;45.21;35.85;53.03;;
72686;Laerm;61365;52.162;4.500;2022-11-15T02:12:47;45.13;35.41;51.68;;
72686;Laerm;61365;52.162;4.500;2022-11-15T02:15:14;45.12;34.20;52.17;;
72686;Laerm;61365;52.162;4.500;2022-11-15T02:18:11;45.15;34.90;52.79;;
72686;Laerm;61365;52.162;4.500;2022-11-15T02:20:55;45.00;35.53;52.05;;
72686;Laerm;61365;52.162;4.500;2022-11-15T02:33:41;45.17;34.78;51.38;;
72686;Laerm;61365;52.162;4.500;2022-11-15T02:42:14;45.05;34.39;52.79;;
72686;Laerm;61365;52.162;4.500;2022-11-15T02:45:09;44.95;35.24;52.14;;
72686;Laerm;61365;52.162;4.500;2022-11-15T02:47:51;44.89;34.60;51.32;;
72686;Laerm;61365;52.162;4.500;2022-11-15T02:50:25;44.94;35.11;52.16;;
72686;Laerm;61365;52.162;4.500;2022-11-15T02:52:53;45.03;35.43;51.97;;
72686;Laerm;61365;52.162;4.500;2022-11-15T02:55:38;44.93;34.54;51.64;;
72686;Laerm;61365;52.162;4.500;2022-11-15T03:06:53;44.92;34.32;51.55;;
72686;Laerm;61365;52.162;4.500;2022-11-15T03:10:09;44.83;36.22;51.35;;
72686;Laerm;61365;52.162;4.500;2022-11-15T03:12:43;44.70;34.98;51.50;;
72686;Laerm;61365;52.162;4.500;2022-11-15T03:15:22;44.91;35.58;52.48;;
72686;Laerm;61365;52.162;4.500;2022-11-15T03:18:06;44.96;33.25;52.91;;
72686;Laerm;61365;52.162;4.500;2022-11-15T03:20:37;44.63;34.83;51.49;;
72686;Laerm;61365;52.162;4.500;2022-11-15T03:23:08;44.60;35.01;53.09;;
72686;Laerm;61365;52.162;4.500;2022-11-15T03:25:46;44.60;35.17;51.23;;
72686;Laerm;61365;52.162;4.500;2022-11-15T03:28:25;44.62;35.20;51.59;;
72686;Laerm;61365;52.162;4.500;2022-11-15T03:30:56;44.57;35.94;52.22;;
72686;Laerm;61365;52.162;4.500;2022-11-15T03:33:23;44.51;35.71;52.51;;
72686;Laerm;61365;52.162;4.500;2022-11-15T03:35:52;44.64;34.43;51.33;;
72686;Laerm;61365;52.162;4.500;2022-11-15T03:38:29;44.64;35.70;51.08;;
72686;Laerm;61365;52.162;4.500;2022-11-15T03:41:00;44.69;35.62;51.20;;
72686;Laerm;61365;52.162;4.500;2022-11-15T03:47:09;44.68;34.75;51.51;;
72686;Laerm;61365;52.162;4.500;2022-11-15T03:49:50;44.77;34.74;51.30;;
72686;Laerm;61365;52.162;4.500;2022-11-15T03:52:20;44.79;35.51;51.76;;
72686;Laerm;61365;52.162;4.500;2022-11-15T03:54:56;44.79;34.78;51.75;;
72686;Laerm;61365;52.162;4.500;2022-11-15T03:57:23;44.89;34.78;52.34;;
72686;Laerm;61365;52.162;4.500;2022-11-15T03:59:49;44.81;35.35;51.56;;
72686;Laerm;61365;52.162;4.500;2022-11-15T04:02:16;44.46;35.58;54.16;;
72686;Laerm;61365;52.162;4.500;2022-11-15T04:04:43;44.46;34.75;51.78;;
72686;Laerm;61365;52.162;4.500;2022-11-15T04:07:09;44.80;34.34;51.24;;
72686;Laerm;61365;52.162;4.500;2022-11-15T04:09:35;44.67;35.93;51.37;;
72686;Laerm;61365;52.162;4.500;2022-11-15T04:12:25;44.72;34.30;51.44;;
72686;Laerm;61365;52.162;4.500;2022-11-15T04:15:09;44.70;35.55;51.87;;
72686;Laerm;61365;52.162;4.500;2022-11-15T04:17:52;44.58;36.09;53.02;;
72686;Laerm;61365;52.162;4.500;2022-11-15T04:20:25;44.69;34.56;51.48;;
72686;Laerm;61365;52.162;4.500;2022-11-15T04:23:30;44.49;35.10;51.99;;
72686;Laerm;61365;52.162;4.500;2022-11-15T04:26:32;44.50;35.46;52.08;;
72686;Laerm;61365;52.162;4.500;2022-11-15T04:28:59;44.36;35.21;52.36;;
72686;Laerm;61365;52.162;4.500;2022-11-15T04:31:44;44.47;35.60;52.28;;
72686;Laerm;61365;52.162;4.500;2022-11-15T04:34:10;44.44;34.33;51.42;;
72686;Laerm;61365;52.162;4.500;2022-11-15T04:36:36;44.39;34.93;51.62;;
72686;Laerm;61365;52.162;4.500;2022-11-15T04:39:21;44.34;34.46;50.91;;
72686;Laerm;61365;52.162;4.500;2022-11-15T04:41:47;44.21;34.01;51.48;;
72686;Laerm;61365;52.162;4.500;2022-11-15T04:44:14;44.16;35.36;51.71;;
72686;Laerm;61365;52.162;4.500;2022-11-15T04:46:40;44.16;34.73;51.27;;
72686;Laerm;61365;52.162;4.500;2022-11-15T04:49:06;44.17;35.06;50.78;;
72686;Laerm;61365;52.162;4.500;2022-11-15T04:51:33;44.21;35.69;50.76;;
72686;Laerm;61365;52.162;4.500;2022-11-15T04:53:59;44.12;35.02;50.86;;
72686;Laerm;61365;52.162;4.500;2022-11-15T04:56:25;44.15;35.25;50.54;;
72686;Laerm;61365;52.162;4.500;2022-11-15T04:58:51;44.36;35.41;51.23;;
72686;Laerm;61365;52.162;4.500;2022-11-15T05:01:18;44.27;34.27;50.90;;
72686;Laerm;61365;52.162;4.500;2022-11-15T05:03:45;44.24;35.77;50.93;;
72686;Laerm;61365;52.162;4.500;2022-11-15T05:06:30;44.35;34.55;51.17;;
72686;Laerm;61365;52.162;4.500;2022-11-15T05:08:57;44.27;35.72;50.77;;
72686;Laerm;61365;52.162;4.500;2022-11-15T05:11:24;44.26;35.30;51.52;;
72686;Laerm;61365;52.162;4.500;2022-11-15T05:13:50;44.08;34.93;51.14;;
72686;Laerm;61365;52.162;4.500;2022-11-15T05:16:17;43.83;35.49;51.61;;
72686;Laerm;61365;52.162;4.500;2022-11-15T05:18:43;43.79;34.76;50.25;;
72686;Laerm;61365;52.162;4.500;2022-11-15T05:21:13;43.84;35.53;55.21;;
72686;Laerm;61365;52.162;4.500;2022-11-15T05:23:41;43.82;36.23;56.33;;
72686;Laerm;61365;52.162;4.500;2022-11-15T05:26:09;43.85;34.89;51.49;;
72686;Laerm;61365;52.162;4.500;2022-11-15T05:28:36;43.85;36.02;50.19;;
72686;Laerm;61365;52.162;4.500;2022-11-15T05:31:08;44.06;34.25;50.26;;
72686;Laerm;61365;52.162;4.500;2022-11-15T05:33:37;43.89;34.04;51.04;;
72686;Laerm;61365;52.162;4.500;2022-11-15T05:36:15;43.92;36.04;51.56;;
72686;Laerm;61365;52.162;4.500;2022-11-15T05:38:45;43.80;35.76;51.55;;
72686;Laerm;61365;52.162;4.500;2022-11-15T05:41:12;44.13;35.17;51.99;;
72686;Laerm;61365;52.162;4.500;2022-11-15T05:43:42;44.31;35.88;54.07;;
72686;Laerm;61365;52.162;4.500;2022-11-15T05:46:09;44.23;36.26;51.06;;
72686;Laerm;61365;52.162;4.500;2022-11-15T05:48:41;43.74;35.18;50.67;;
72686;Laerm;61365;52.162;4.500;2022-11-15T05:51:09;44.20;35.24;50.91;;
72686;Laerm;61365;52.162;4.500;2022-11-15T05:53:37;44.19;34.93;51.00;;
72686;Laerm;61365;52.162;4.500;2022-11-15T05:56:05;43.91;32.18;53.94;;
72686;Laerm;61365;52.162;4.500;2022-11-15T05:58:33;54.65;31.57;68.24;;
72686;Laerm;61365;52.162;4.500;2022-11-15T06:01:00;52.17;31.75;66.59;;
72686;Laerm;61365;52.162;4.500;2022-11-15T06:03:27;42.25;32.72;52.48;;
72686;Laerm;61365;52.162;4.500;2022-11-15T06:05:54;42.06;34.28;46.03;;
72686;Laerm;61365;52.162;4.500;2022-11-15T06:08:20;42.20;35.49;52.25;;
72686;Laerm;61365;52.162;4.500;2022-11-15T06:10:46;42.64;35.70;45.91;;
72686;Laerm;61365;52.162;4.500;2022-11-15T06:13:13;43.11;35.71;58.50;;
72686;Laerm;61365;52.162;4.500;2022-11-15T06:15:39;55.38;36.29;62.42;;
72686;Laerm;61365;52.162;4.500;2022-11-15T06:18:05;54.96;36.40;61.31;;
72686;Laerm;61365;52.162;4.500;2022-11-15T06:20:32;52.39;36.69;58.04;;
72686;Laerm;61365;52.162;4.500;2022-11-15T06:23:00;52.49;36.90;57.50;;
72686;Laerm;61365;52.162;4.500;2022-11-15T06:25:28;52.05;36.26;58.01;;
72686;Laerm;61365;52.162;4.500;2022-11-15T06:27:57;51.90;35.56;57.45;;
72686;Laerm;61365;52.162;4.500;2022-11-15T06:30:25;51.46;34.37;57.40;;
72686;Laerm;61365;52.162;4.500;2022-11-15T06:33:00;51.31;35.34;57.52;;
72686;Laerm;61365;52.162;4.500;2022-11-15T06:35:28;51.50;35.42;57.54;;
72686;Laerm;61365;52.162;4.500;2022-11-15T06:37:55;51.95;37.13;57.36;;
72686;Laerm;61365;52.162;4.500;2022-11-15T06:40:22;56.52;35.42;65.85;;
72686;Laerm;61365;52.162;4.500;2022-11-15T06:42:48;47.24;33.38;68.06;;
72686;Laerm;61365;52.162;4.500;2022-11-15T06:45:14;43.61;33.99;60.38;;
72686;Laerm;61365;52.162;4.500;2022-11-15T06:47:47;50.18;32.78;64.46;;
72686;Laerm;61365;52.162;4.500;2022-11-15T06:50:13;50.50;32.55;62.72;;
72686;Laerm;61365;52.162;4.500;2022-11-15T06:52:40;43.80;33.20;62.12;;
72686;Laerm;61365;52.162;4.500;2022-11-15T06:55:07;45.97;33.04;60.22;;
72686;Laerm;61365;52.162;4.500;2022-11-15T06:57:35;50.30;31.18;62.97;;
72686;Laerm;61365;52.162;4.500;2022-11-15T07:00:06;42.49;31.19;63.13;;
72686;Laerm;61365;52.162;4.500;2022-11-15T07:02:32;42.91;32.22;57.04;;
72686;Laerm;61365;52.162;4.500;2022-11-15T07:04:59;44.53;35.07;63.29;;
72686;Laerm;61365;52.162;4.500;2022-11-15T07:07:25;44.43;35.02;58.49;;
72686;Laerm;61365;52.162;4.500;2022-11-15T07:09:51;43.34;34.14;56.18;;
72686;Laerm;61365;52.162;4.500;2022-11-15T07:12:18;43.35;33.97;54.68;;
72686;Laerm;61365;52.162;4.500;2022-11-15T07:14:44;43.55;34.25;64.97;;
72686;Laerm;61365;52.162;4.500;2022-11-15T07:17:10;43.16;34.18;54.82;;
72686;Laerm;61365;52.162;4.500;2022-11-15T07:19:37;43.30;34.20;55.43;;
72686;Laerm;61365;52.162;4.500;2022-11-15T07:22:03;43.52;33.74;66.58;;
72686;Laerm;61365;52.162;4.500;2022-11-15T07:24:30;43.74;33.86;55.77;;
72686;Laerm;61365;52.162;4.500;2022-11-15T07:26:56;43.72;32.75;64.90;;
72686;Laerm;61365;52.162;4.500;2022-11-15T07:29:22;43.81;32.65;55.62;;
72686;Laerm;61365;52.162;4.500;2022-11-15T07:31:49;43.22;32.68;54.84;;
72686;Laerm;61365;52.162;4.500;2022-11-15T07:34:16;43.42;33.04;54.62;;
72686;Laerm;61365;52.162;4.500;2022-11-15T07:36:42;43.33;32.69;56.97;;
72686;Laerm;61365;52.162;4.500;2022-11-15T07:39:09;43.39;33.30;55.03;;
72686;Laerm;61365;52.162;4.500;2022-11-15T07:41:35;43.32;33.37;55.06;;
72686;Laerm;61365;52.162;4.500;2022-11-15T07:44:02;43.14;32.86;54.60;;
72686;Laerm;61365;52.162;4.500;2022-11-15T07:46:28;43.30;33.55;54.63;;
72686;Laerm;61365;52.162;4.500;2022-11-15T07:48:54;43.14;33.87;54.65;;
72686;Laerm;61365;52.162;4.500;2022-11-15T07:51:21;43.71;33.26;55.28;;
72686;Laerm;61365;52.162;4.500;2022-11-15T07:53:47;43.30;33.35;54.87;;
72686;Laerm;61365;52.162;4.500;2022-11-15T07:56:13;43.79;32.95;55.86;;
72686;Laerm;61365;52.162;4.500;2022-11-15T07:58:40;43.50;35.96;56.29;;
72686;Laerm;61365;52.162;4.500;2022-11-15T08:01:09;44.40;35.04;58.79;;
72686;Laerm;61365;52.162;4.500;2022-11-15T08:03:36;44.46;34.13;59.03;;
72686;Laerm;61365;52.162;4.500;2022-11-15T08:06:03;44.60;35.22;56.76;;
72686;Laerm;61365;52.162;4.500;2022-11-15T08:08:29;44.83;35.64;56.66;;
72686;Laerm;61365;52.162;4.500;2022-11-15T08:10:58;45.43;34.65;56.71;;
72686;Laerm;61365;52.162;4.500;2022-11-15T08:13:24;45.09;32.47;54.93;;
72686;Laerm;61365;52.162;4.500;2022-11-15T08:15:51;45.32;33.68;55.72;;
72686;Laerm;61365;52.162;4.500;2022-11-15T08:18:17;53.68;33.90;73.87;;
72686;Laerm;61365;52.162;4.500;2022-11-15T08:20:44;44.55;41.87;49.23;;
72686;Laerm;61365;52.162;4.500;2022-11-15T08:23:11;45.45;34.30;56.89;;
72686;Laerm;61365;52.162;4.500;2022-11-15T08:25:39;46.03;37.09;59.97;;
72686;Laerm;61365;52.162;4.500;2022-11-15T08:28:09;44.84;35.66;56.00;;
72686;Laerm;61365;52.162;4.500;2022-11-15T08:30:39;43.57;34.14;55.22;;
72686;Laerm;61365;52.162;4.500;2022-11-15T08:33:12;42.97;32.83;47.46;;
72686;Laerm;61365;52.162;4.500;2022-11-15T08:35:41;42.94;39.77;47.01;;
72686;Laerm;61365;52.162;4.500;2022-11-15T08:38:08;42.89;34.80;47.41;;
72686;Laerm;61365;52.162;4.500;2022-11-15T08:40:35;42.96;34.36;46.93;;
72686;Laerm;61365;52.162;4.500;2022-11-15T08:43:03;43.01;38.50;46.41;;
72686;Laerm;61365;52.162;4.500;2022-11-15T08:45:31;42.98;34.15;46.28;;
72686;Laerm;61365;52.162;4.500;2022-11-15T08:47:57;42.91;40.14;46.48;;
72686;Laerm;61365;52.162;4.500;2022-11-15T08:50:26;43.21;34.54;50.11;;
72686;Laerm;61365;52.162;4.500;2022-11-15T08:52:52;42.73;33.53;45.74;;
72686;Laerm;61365;52.162;4.500;2022-11-15T08:55:19;42.56;35.13;45.04;;
72686;Laerm;61365;52.162;4.500;2022-11-15T08:57:45;42.56;33.15;45.08;;
72686;Laerm;61365;52.162;4.500;2022-11-15T09:00:12;42.54;33.47;44.84;;
72686;Laerm;61365;52.162;4.500;2022-11-15T09:02:40;42.64;33.60;46.30;;
72686;Laerm;61365;52.162;4.500;2022-11-15T09:05:07;42.60;32.79;50.40;;
72686;Laerm;61365;52.162;4.500;2022-11-15T09:07:34;42.79;33.20;45.50;;
72686;Laerm;61365;52.162;4.500;2022-11-15T09:10:00;45.85;35.81;56.57;;
72686;Laerm;61365;52.162;4.500;2022-11-15T09:12:27;43.88;35.13;55.79;;
72686;Laerm;61365;52.162;4.500;2022-11-15T09:14:53;43.19;36.02;49.51;;
72686;Laerm;61365;52.162;4.500;2022-11-15T09:17:19;43.40;38.41;51.07;;
72686;Laerm;61365;52.162;4.500;2022-11-15T09:19:46;43.95;36.40;52.85;;
72686;Laerm;61365;52.162;4.500;2022-11-15T09:22:12;43.49;36.86;58.06;;
72686;Laerm;61365;52.162;4.500;2022-11-15T09:24:39;44.86;33.34;62.46;;
72686;Laerm;61365;52.162;4.500;2022-11-15T09:27:05;43.72;34.86;55.31;;
72686;Laerm;61365;52.162;4.500;2022-11-15T09:29:31;42.69;32.35;60.03;;
72686;Laerm;61365;52.162;4.500;2022-11-15T09:31:57;42.44;32.67;47.35;;
72686;Laerm;61365;52.162;4.500;2022-11-15T09:34:24;42.64;32.77;47.01;;
72686;Laerm;61365;52.162;4.500;2022-11-15T09:36:50;43.83;31.62;57.99;;
72686;Laerm;61365;52.162;4.500;2022-11-15T09:39:17;47.67;31.19;66.13;;
72686;Laerm;61365;52.162;4.500;2022-11-15T09:50:15;45.08;37.51;55.92;;
72686;Laerm;61365;52.162;4.500;2022-11-15T09:52:45;44.12;39.47;53.14;;
72686;Laerm;61365;52.162;4.500;2022-11-15T09:55:14;45.12;37.70;57.26;;
72686;Laerm;61365;52.162;4.500;2022-11-15T09:58:10;42.97;34.63;57.79;;
72686;Laerm;61365;52.162;4.500;2022-11-15T10:00:47;45.59;33.52;58.97;;
72686;Laerm;61365;52.162;4.500;2022-11-15T10:03:28;42.42;32.90;57.09;;
72686;Laerm;61365;52.162;4.500;2022-11-15T10:06:04;42.66;34.70;53.61;;
72686;Laerm;61365;52.162;4.500;2022-11-15T10:08:52;42.99;32.70;53.80;;
72686;Laerm;61365;52.162;4.500;2022-11-15T10:11:25;44.35;39.19;54.03;;
72686;Laerm;61365;52.162;4.500;2022-11-15T10:14:00;48.29;34.04;57.24;;
72686;Laerm;61365;52.162;4.500;2022-11-15T10:19:54;53.04;41.45;56.67;;
72686;Laerm;61365;52.162;4.500;2022-11-15T10:27:43;46.96;32.80;63.10;;
72686;Laerm;61365;52.162;4.500;2022-11-15T10:30:14;42.13;32.12;46.62;;
72686;Laerm;61365;52.162;4.500;2022-11-15T10:32:44;42.45;31.19;52.40;;
72686;Laerm;61365;52.162;4.500;2022-11-15T10:35:29;43.01;32.22;57.96;;
72686;Laerm;61365;52.162;4.500;2022-11-15T10:38:10;42.61;32.54;56.40;;
72686;Laerm;61365;52.162;4.500;2022-11-15T10:40:39;42.77;36.03;53.37;;
72686;Laerm;61365;52.162;4.500;2022-11-15T10:43:18;42.97;35.30;48.91;;
72686;Laerm;61365;52.162;4.500;2022-11-15T10:45:46;42.81;37.07;50.13;;
72686;Laerm;61365;52.162;4.500;2022-11-15T10:50:45;42.77;35.60;53.42;;
72686;Laerm;61365;52.162;4.500;2022-11-15T10:55:54;43.87;39.01;49.03;;
72686;Laerm;61365;52.162;4.500;2022-11-15T10:58:41;44.49;39.92;50.14;;
72686;Laerm;61365;52.162;4.500;2022-11-15T11:01:22;44.37;33.82;49.52;;
72686;Laerm;61365;52.162;4.500;2022-11-15T11:04:02;44.13;40.88;49.04;;
72686;Laerm;61365;52.162;4.500;2022-11-15T11:06:30;44.28;41.55;48.61;;
72686;Laerm;61365;52.162;4.500;2022-11-15T11:09:22;44.28;40.59;49.72;;
72686;Laerm;61365;52.162;4.500;2022-11-15T11:11:51;44.09;39.92;49.41;;
72686;Laerm;61365;52.162;4.500;2022-11-15T11:14:44;44.24;39.68;49.58;;
72686;Laerm;61365;52.162;4.500;2022-11-15T11:30:14;44.32;33.36;50.82;;
72686;Laerm;61365;52.162;4.500;2022-11-15T11:37:02;42.52;32.89;53.81;;
72686;Laerm;61365;52.162;4.500;2022-11-15T11:40:40;41.51;35.45;46.17;;
72686;Laerm;61365;52.162;4.500;2022-11-15T11:46:43;41.58;35.06;54.43;;
72686;Laerm;61365;52.162;4.500;2022-11-15T11:48:43;41.38;34.23;46.05;;
72686;Laerm;61365;52.162;4.500;2022-11-15T11:51:42;42.07;35.60;54.36;;
72686;Laerm;61365;52.162;4.500;2022-11-15T11:54:19;41.97;31.96;57.64;;
72686;Laerm;61365;52.162;4.500;2022-11-15T11:56:49;43.45;32.28;55.51;;
72686;Laerm;61365;52.162;4.500;2022-11-15T11:59:35;42.26;32.34;55.38;;
72686;Laerm;61365;52.162;4.500;2022-11-15T12:02:21;41.82;31.69;54.27;;
72686;Laerm;61365;52.162;4.500;2022-11-15T12:05:01;42.77;31.84;51.68;;
72686;Laerm;61365;52.162;4.500;2022-11-15T12:07:34;42.88;33.74;49.03;;
72686;Laerm;61365;52.162;4.500;2022-11-15T12:10:17;42.89;34.27;47.16;;
72686;Laerm;61365;52.162;4.500;2022-11-15T12:13:10;42.70;34.36;46.96;;
72686;Laerm;61365;52.162;4.500;2022-11-15T12:15:46;44.35;32.37;60.72;;
72686;Laerm;61365;52.162;4.500;2022-11-15T12:18:16;47.06;40.86;57.18;;
72686;Laerm;61365;52.162;4.500;2022-11-15T12:20:59;46.93;41.00;57.64;;
72686;Laerm;61365;52.162;4.500;2022-11-15T12:23:38;46.76;40.84;57.80;;
72686;Laerm;61365;52.162;4.500;2022-11-15T12:26:22;47.19;40.95;58.24;;
72686;Laerm;61365;52.162;4.500;2022-11-15T12:36:49;41.88;33.11;57.98;;
72686;Laerm;61365;52.162;4.500;2022-11-15T12:39:18;41.78;32.75;58.47;;
72686;Laerm;61365;52.162;4.500;2022-11-15T12:59:58;43.25;35.11;58.82;;
72686;Laerm;61365;52.162;4.500;2022-11-15T13:02:32;43.14;35.24;57.68;;
72686;Laerm;61365;52.162;4.500;2022-11-15T13:17:51;43.38;35.97;58.77;;
72686;Laerm;61365;52.162;4.500;2022-11-15T13:20:30;43.44;36.88;58.50;;
72686;Laerm;61365;52.162;4.500;2022-11-15T13:31:24;43.27;36.89;58.50;;
72686;Laerm;61365;52.162;4.500;2022-11-15T13:33:53;43.30;37.06;58.53;;
72686;Laerm;61365;52.162;4.500;2022-11-15T13:36:29;43.38;35.32;58.77;;
72686;Laerm;61365;52.162;4.500;2022-11-15T13:39:25;43.22;37.22;58.82;;
72686;Laerm;61365;52.162;4.500;2022-11-15T13:41:52;43.43;36.47;58.68;;
72686;Laerm;61365;52.162;4.500;2022-11-15T13:44:29;43.60;37.71;58.22;;
72686;Laerm;61365;52.162;4.500;2022-11-15T13:47:14;43.53;36.12;58.85;;
72686;Laerm;61365;52.162;4.500;2022-11-15T13:49:41;43.39;35.86;58.67;;
72686;Laerm;61365;52.162;4.500;2022-11-15T13:52:13;43.30;37.69;58.10;;
72686;Laerm;61365;52.162;4.500;2022-11-15T13:54:57;43.44;37.63;58.64;;
72686;Laerm;61365;52.162;4.500;2022-11-15T14:00:30;42.83;33.14;59.01;;
72686;Laerm;61365;52.162;4.500;2022-11-15T14:03:29;43.12;33.03;58.78;;
72686;Laerm;61365;52.162;4.500;2022-11-15T14:06:15;43.48;33.40;59.35;;
72686;Laerm;61365;52.162;4.500;2022-11-15T14:11:30;43.08;33.18;58.77;;
72686;Laerm;61365;52.162;4.500;2022-11-15T14:16:41;43.59;35.10;59.08;;
72686;Laerm;61365;52.162;4.500;2022-11-15T14:19:33;43.42;33.79;58.96;;
72686;Laerm;61365;52.162;4.500;2022-11-15T14:22:21;43.54;32.90;59.32;;
72686;Laerm;61365;52.162;4.500;2022-11-15T14:28:16;43.50;33.77;59.33;;
72686;Laerm;61365;52.162;4.500;2022-11-15T14:30:57;43.66;32.66;64.91;;
72686;Laerm;61365;52.162;4.500;2022-11-15T14:33:32;43.45;33.78;58.91;;
72686;Laerm;61365;52.162;4.500;2022-11-15T14:36:12;43.37;35.27;57.48;;
72686;Laerm;61365;52.162;4.500;2022-11-15T14:38:39;43.28;35.39;57.18;;
72686;Laerm;61365;52.162;4.500;2022-11-15T14:41:19;46.32;33.26;59.10;;
72686;Laerm;61365;52.162;4.500;2022-11-15T14:43:46;45.81;36.82;59.66;;
72686;Laerm;61365;52.162;4.500;2022-11-15T14:46:12;52.01;31.67;71.83;;
72686;Laerm;61365;52.162;4.500;2022-11-15T14:48:39;44.69;36.17;58.92;;
72686;Laerm;61365;52.162;4.500;2022-11-15T14:51:14;49.41;38.99;65.00;;
72686;Laerm;61365;52.162;4.500;2022-11-15T14:53:43;50.70;36.64;64.90;;
72686;Laerm;61365;52.162;4.500;2022-11-15T14:56:10;43.67;39.49;57.90;;
72686;Laerm;61365;52.162;4.500;2022-11-15T14:58:37;43.82;38.96;58.17;;
72686;Laerm;61365;52.162;4.500;2022-11-15T15:01:25;44.03;40.46;57.95;;
72686;Laerm;61365;52.162;4.500;2022-11-15T15:03:56;43.58;37.98;57.74;;
72686;Laerm;61365;52.162;4.500;2022-11-15T15:06:25;45.54;37.68;59.72;;
72686;Laerm;61365;52.162;4.500;2022-11-15T15:08:51;44.19;37.66;59.69;;
72686;Laerm;61365;52.162;4.500;2022-11-15T15:11:26;45.14;35.89;61.14;;
72686;Laerm;61365;52.162;4.500;2022-11-15T15:13:54;43.57;35.51;59.83;;
72686;Laerm;61365;52.162;4.500;2022-11-15T15:16:24;43.94;35.37;59.72;;
72686;Laerm;61365;52.162;4.500;2022-11-15T15:18:50;44.15;36.24;61.55;;
72686;Laerm;61365;52.162;4.500;2022-11-15T15:21:23;44.05;36.59;59.85;;
72686;Laerm;61365;52.162;4.500;2022-11-15T15:23:50;43.79;35.59;59.94;;
72686;Laerm;61365;52.162;4.500;2022-11-15T15:26:17;43.57;36.85;59.92;;
72686;Laerm;61365;52.162;4.500;2022-11-15T15:28:43;43.70;37.12;59.94;;
72686;Laerm;61365;52.162;4.500;2022-11-15T15:31:10;44.00;37.06;60.76;;
72686;Laerm;61365;52.162;4.500;2022-11-15T15:33:37;44.12;37.26;59.74;;
72686;Laerm;61365;52.162;4.500;2022-11-15T15:36:04;43.48;36.44;59.82;;
72686;Laerm;61365;52.162;4.500;2022-11-15T15:38:31;42.77;33.92;57.42;;
72686;Laerm;61365;52.162;4.500;2022-11-15T15:40:57;44.25;33.02;57.54;;
72686;Laerm;61365;52.162;4.500;2022-11-15T15:43:25;44.43;33.22;58.77;;
72686;Laerm;61365;52.162;4.500;2022-11-15T15:45:51;42.89;35.07;58.38;;
72686;Laerm;61365;52.162;4.500;2022-11-15T15:48:18;43.57;35.86;58.30;;
72686;Laerm;61365;52.162;4.500;2022-11-15T15:50:44;46.65;36.38;65.55;;
72686;Laerm;61365;52.162;4.500;2022-11-15T15:53:12;44.56;37.71;57.60;;
72686;Laerm;61365;52.162;4.500;2022-11-15T15:55:39;44.52;32.76;57.37;;
72686;Laerm;61365;52.162;4.500;2022-11-15T15:58:06;44.60;38.80;56.92;;
72686;Laerm;61365;52.162;4.500;2022-11-15T16:00:34;44.71;37.08;57.31;;
72686;Laerm;61365;52.162;4.500;2022-11-15T16:03:00;44.69;32.42;57.14;;
72686;Laerm;61365;52.162;4.500;2022-11-15T16:05:26;43.69;38.93;57.23;;
72686;Laerm;61365;52.162;4.500;2022-11-15T16:07:53;43.97;38.48;55.60;;
72686;Laerm;61365;52.162;4.500;2022-11-15T16:10:32;43.93;38.42;54.89;;
72686;Laerm;61365;52.162;4.500;2022-11-15T16:13:00;43.83;37.75;57.35;;
72686;Laerm;61365;52.162;4.500;2022-11-15T16:15:30;43.72;38.49;55.23;;
72686;Laerm;61365;52.162;4.500;2022-11-15T16:17:59;43.82;38.03;55.19;;
72686;Laerm;61365;52.162;4.500;2022-11-15T16:20:39;43.78;38.19;58.27;;